createdAt,value
2023-01-10T00:00:33.157Z,391.73
2023-01-10T00:03:25.357Z,370.73
2023-01-10T00:06:15.451Z,398.27
2023-01-10T00:08:58.420Z,411.92
2023-01-10T00:12:05.514Z,378.13
2023-01-10T00:14:47.660Z,392.60
2023-01-10T00:17:36.383Z,372.25
2023-01-10T00:20:19.683Z,380.92
2023-01-10T00:23:08.430Z,399.08
2023-01-10T00:25:50.741Z,391.95
2023-01-10T00:28:42.702Z,437.25
2023-01-10T00:31:25.791Z,396.05
2023-01-10T00:34:15.492Z,412.90
2023-01-10T00:37:04.330Z,448.77
2023-01-10T00:39:53.342Z,402.48
2023-01-10T00:42:54.041Z,412.42
2023-01-10T00:45:43.337Z,440.48
2023-01-10T00:48:25.766Z,399.33
2023-01-10T00:51:14.403Z,391.40
2023-01-10T00:54:02.804Z,396.63
2023-01-10T00:56:44.381Z,439.92
2023-01-10T00:59:33.395Z,434.40
2023-01-10T01:02:22.467Z,424.63
2023-01-10T01:05:20.339Z,467.30
2023-01-10T01:08:02.599Z,406.08
2023-01-10T01:10:51.478Z,379.60
2023-01-10T01:13:33.630Z,385.17
2023-01-10T01:16:23.449Z,359.98
2023-01-10T01:19:05.633Z,373.42
2023-01-10T01:21:54.325Z,399.60
2023-01-10T01:24:36.757Z,401.17
2023-01-10T01:27:25.404Z,346.65
2023-01-10T01:30:15.717Z,356.23
2023-01-10T01:32:57.683Z,341.00
2023-01-10T01:35:49.430Z,416.25
2023-01-10T01:38:31.694Z,400.67
2023-01-10T01:41:39.331Z,379.00
2023-01-10T01:44:26.727Z,384.70
2023-01-10T01:47:22.483Z,394.48
2023-01-10T01:50:04.679Z,384.10
2023-01-10T01:52:55.368Z,409.02
2023-01-10T01:55:41.654Z,430.80
2023-01-10T01:58:38.342Z,438.33
2023-01-10T02:01:22.802Z,408.90
2023-01-10T02:04:30.374Z,402.63
2023-01-10T02:07:12.757Z,396.20
2023-01-10T02:10:06.417Z,418.65
2023-01-10T02:12:56.400Z,427.08
2023-01-10T02:15:38.661Z,400.83
2023-01-10T02:18:28.456Z,430.35
2023-01-10T02:21:41.383Z,413.90
2023-01-10T02:24:44.715Z,409.00
2023-01-10T02:28:22.373Z,416.40
2023-01-10T02:31:22.855Z,398.15
2023-01-10T02:34:25.235Z,416.77
2023-01-10T02:37:32.253Z,396.83
2023-01-10T02:40:52.528Z,418.45
2023-01-10T02:43:57.459Z,392.38
2023-01-10T02:46:41.763Z,379.33
2023-01-10T02:49:30.283Z,389.38
2023-01-10T02:52:19.437Z,393.77
2023-01-10T02:55:14.390Z,377.73
2023-01-10T02:58:20.875Z,387.48
2023-01-10T03:01:47.475Z,397.08
2023-01-10T03:05:06.267Z,399.48
2023-01-10T03:08:00.657Z,375.70
2023-01-10T03:11:10.318Z,388.77
2023-01-10T03:14:12.404Z,417.67
2023-01-10T03:17:04.941Z,391.77
2023-01-10T03:20:00.285Z,426.95
2023-01-10T03:22:44.282Z,413.08
2023-01-10T03:25:41.441Z,390.00
2023-01-10T03:28:53.638Z,403.20
2023-01-10T03:31:53.404Z,377.33
2023-01-10T03:34:42.720Z,406.67
2023-01-10T03:37:42.300Z,421.73
2023-01-10T03:40:42.642Z,393.02
2023-01-10T03:44:23.300Z,424.23
2023-01-10T03:47:22.353Z,405.27
2023-01-10T03:50:38.442Z,414.40
2023-01-10T03:53:34.273Z,415.35
2023-01-10T03:56:23.295Z,420.48
2023-01-10T03:59:13.236Z,417.52
2023-01-10T04:01:56.169Z,430.02
2023-01-10T04:04:45.408Z,435.73
2023-01-10T04:07:35.236Z,418.90
2023-01-10T04:10:18.444Z,432.45
2023-01-10T04:13:10.693Z,430.17
2023-01-10T04:15:52.298Z,402.40
2023-01-10T04:18:34.502Z,414.10
2023-01-10T04:21:23.298Z,428.83
2023-01-10T04:24:05.773Z,433.60
2023-01-10T04:26:54.343Z,412.40
2023-01-10T04:29:36.604Z,420.92
2023-01-10T04:32:25.305Z,395.27
2023-01-10T04:35:08.058Z,411.77
2023-01-10T04:37:58.327Z,423.38
2023-01-10T04:40:53.441Z,436.33
2023-01-10T04:43:35.540Z,432.67
2023-01-10T04:46:24.434Z,425.52
2023-01-10T04:49:07.177Z,426.80
2023-01-10T04:51:56.329Z,426.77
2023-01-10T04:54:52.347Z,400.58
2023-01-10T04:57:34.722Z,400.17
2023-01-10T05:00:24.281Z,426.77
2023-01-10T05:03:13.280Z,407.73
2023-01-10T05:05:55.628Z,396.80
2023-01-10T05:08:44.335Z,407.67
2023-01-10T05:11:26.656Z,411.45
2023-01-10T05:14:15.313Z,393.15
2023-01-10T05:16:57.639Z,409.13
2023-01-10T05:19:46.332Z,403.70
2023-01-10T05:22:28.700Z,410.48
2023-01-10T05:25:18.420Z,404.55
2023-01-10T05:28:02.215Z,387.05
2023-01-10T05:30:51.378Z,399.83
2023-01-10T05:33:40.282Z,385.67
2023-01-10T05:36:28.653Z,390.75
2023-01-10T05:39:12.703Z,379.92
2023-01-10T05:42:01.836Z,410.67
2023-01-10T05:44:43.423Z,378.63
2023-01-10T05:47:31.758Z,405.38
2023-01-10T05:50:14.292Z,411.45
2023-01-10T05:53:03.326Z,407.27
2023-01-10T05:55:52.767Z,387.08
2023-01-10T05:58:36.421Z,379.42
2023-01-10T06:01:25.289Z,380.73
2023-01-10T06:04:14.371Z,390.75
2023-01-10T06:07:05.835Z,387.75
2023-01-10T06:09:47.882Z,377.92
2023-01-10T06:12:36.409Z,374.98
2023-01-10T06:15:26.351Z,367.95
2023-01-10T06:18:15.681Z,374.40
2023-01-10T06:20:58.417Z,355.38
2023-01-10T06:27:25.235Z,392.33
2023-01-10T06:30:08.292Z,379.25
2023-01-10T06:32:57.370Z,380.55
2023-01-10T06:35:48.006Z,382.00
2023-01-10T06:38:30.366Z,397.30
2023-01-10T06:41:18.696Z,386.30
2023-01-10T06:44:00.390Z,364.73
2023-01-10T06:46:49.424Z,380.10
2023-01-10T06:49:31.807Z,370.45
2023-01-10T06:52:20.363Z,352.05
2023-01-10T06:55:02.600Z,343.58
2023-01-10T06:57:51.372Z,350.05
2023-01-10T07:00:35.784Z,354.42
2023-01-10T07:03:24.276Z,330.83
2023-01-10T07:06:12.420Z,325.40
2023-01-10T07:09:04.237Z,326.27
2023-01-10T07:11:46.594Z,344.52
2023-01-10T07:14:35.377Z,350.80
2023-01-10T07:17:17.618Z,332.85
2023-01-10T07:20:06.372Z,320.98
2023-01-10T07:22:48.631Z,310.00
2023-01-10T07:25:38.308Z,305.73
2023-01-10T07:28:27.397Z,311.13
2023-01-10T07:31:16.376Z,298.40
2023-01-10T07:34:08.366Z,283.00
2023-01-10T07:36:57.264Z,282.85
2023-01-10T07:39:39.677Z,294.63
2023-01-10T07:42:28.320Z,298.52
2023-01-10T07:45:10.588Z,272.33
2023-01-10T07:47:59.367Z,283.52
2023-01-10T07:50:43.722Z,272.88
2023-01-10T07:53:33.256Z,267.58
2023-01-10T07:56:15.574Z,271.63
2023-01-10T07:59:04.395Z,283.10
2023-01-10T08:01:53.401Z,286.02
2023-01-10T08:04:35.614Z,278.33
2023-01-10T08:07:24.262Z,273.98
2023-01-10T08:10:07.755Z,259.08
2023-01-10T08:12:57.734Z,272.95
2023-01-10T08:15:39.670Z,279.92
2023-01-10T08:18:28.344Z,255.05
2023-01-10T08:21:18.375Z,264.05
2023-01-10T08:24:01.662Z,253.43
2023-01-10T08:26:50.274Z,259.33
2023-01-10T08:29:32.607Z,263.60
2023-01-10T08:32:21.246Z,251.80
2023-01-10T08:35:03.621Z,265.83
2023-01-10T08:37:52.322Z,265.63
2023-01-10T08:40:36.111Z,252.80
2023-01-10T08:43:25.305Z,253.00
2023-01-10T08:46:14.250Z,255.68
2023-01-10T08:49:03.424Z,261.65
2023-01-10T08:51:46.606Z,264.55
2023-01-10T08:54:35.356Z,277.67
2023-01-10T08:57:17.553Z,266.35
2023-01-10T09:00:06.328Z,262.60
2023-01-10T09:02:49.749Z,273.85
2023-01-10T09:05:38.441Z,273.27
2023-01-10T09:08:20.631Z,269.90
2023-01-10T09:11:10.382Z,274.92
2023-01-10T09:13:52.737Z,283.02
2023-01-10T09:16:41.238Z,281.02
2023-01-10T09:19:30.362Z,284.77
2023-01-10T09:22:18.595Z,296.13
2023-01-10T09:25:01.266Z,307.30
2023-01-10T09:27:50.610Z,321.92
2023-01-10T09:30:33.255Z,308.88
2023-01-10T09:33:22.605Z,335.58
2023-01-10T09:36:08.543Z,334.73
2023-01-10T09:38:57.621Z,340.90
2023-01-10T09:42:03.290Z,335.42
2023-01-10T09:44:48.055Z,335.13
2023-01-10T09:48:02.272Z,333.10
2023-01-10T09:51:18.656Z,352.45
2023-01-10T09:54:12.482Z,358.02
2023-01-10T09:57:01.657Z,395.63
2023-01-10T09:59:50.334Z,381.65
2023-01-10T10:02:49.608Z,374.67
2023-01-10T10:05:36.253Z,370.80
2023-01-10T10:08:21.425Z,401.75
2023-01-10T10:11:15.310Z,386.85
2023-01-10T10:14:43.197Z,386.10
2023-01-10T10:17:54.260Z,383.45
2023-01-10T10:21:05.315Z,390.95
2023-01-10T10:24:05.620Z,388.45
2023-01-10T10:27:16.242Z,402.75
2023-01-10T10:30:17.694Z,397.02
2023-01-10T10:33:18.276Z,374.48
2023-01-10T10:36:12.502Z,404.33
2023-01-10T10:39:03.431Z,398.85
2023-01-10T10:42:09.123Z,407.92
2023-01-10T10:45:03.285Z,409.25
2023-01-10T10:51:00.682Z,404.35
2023-01-10T10:53:43.331Z,402.40
2023-01-10T10:56:27.876Z,411.85
2023-01-10T10:59:16.251Z,403.13
2023-01-10T11:01:58.595Z,393.55
2023-01-10T11:04:47.221Z,403.63
2023-01-10T11:07:35.642Z,397.88
2023-01-10T11:10:43.248Z,403.95
2023-01-10T11:13:34.481Z,404.77
2023-01-10T11:16:37.377Z,419.00
2023-01-10T11:19:31.748Z,426.98
2023-01-10T11:22:16.373Z,400.15
2023-01-10T11:25:09.567Z,403.63
2023-01-10T11:28:06.324Z,441.00
2023-01-10T11:30:48.661Z,406.27
2023-01-10T11:33:43.356Z,399.30
2023-01-10T11:36:26.264Z,422.95
2023-01-10T11:39:15.240Z,433.52
2023-01-10T11:42:06.412Z,405.38
2023-01-10T11:44:55.542Z,417.80
2023-01-10T11:47:45.288Z,406.10
2023-01-10T11:50:38.895Z,408.73
2023-01-10T11:53:43.222Z,421.57
2023-01-10T11:56:37.660Z,404.25
2023-01-10T11:59:26.761Z,415.08
2023-01-10T12:02:23.468Z,426.40
2023-01-10T12:05:10.150Z,417.25
2023-01-10T12:08:14.288Z,413.55
2023-01-10T12:11:26.111Z,399.85
2023-01-10T12:14:28.184Z,410.60
2023-01-10T12:17:11.673Z,412.40
2023-01-10T12:20:04.277Z,394.75
2023-01-10T12:22:59.761Z,416.50
2023-01-10T12:26:11.127Z,406.27
2023-01-10T12:28:58.874Z,414.83
2023-01-10T12:31:49.264Z,406.52
2023-01-10T12:34:50.218Z,406.73
2023-01-10T12:37:51.416Z,406.00
2023-01-10T12:40:58.751Z,394.15
2023-01-10T12:44:09.309Z,383.20
2023-01-10T12:47:09.917Z,393.88
2023-01-10T12:50:21.402Z,386.52
2023-01-10T12:53:27.622Z,361.63
2023-01-10T12:56:15.226Z,375.50
2023-01-10T12:59:11.587Z,356.88
2023-01-10T13:02:02.379Z,334.75
2023-01-10T13:04:56.591Z,333.13
2023-01-10T13:07:43.217Z,350.65
2023-01-10T13:10:34.649Z,325.17
2023-01-10T13:13:45.743Z,304.55
2023-01-10T13:16:43.178Z,288.52
2023-01-10T13:19:32.189Z,297.77
2023-01-10T13:22:28.657Z,293.05
2023-01-10T13:25:11.277Z,279.90
2023-01-10T13:28:29.244Z,279.63
2023-01-10T13:31:27.780Z,282.48
2023-01-10T13:34:20.313Z,283.45
2023-01-10T13:37:20.663Z,281.40
2023-01-10T13:40:08.301Z,280.05
2023-01-10T13:43:34.789Z,288.42
2023-01-10T13:46:33.362Z,262.25
2023-01-10T13:49:32.088Z,278.95
2023-01-10T13:52:40.277Z,260.70
2023-01-10T13:55:40.737Z,257.38
2023-01-10T13:58:49.312Z,255.55
2023-01-10T14:02:03.951Z,248.73
2023-01-10T14:05:04.308Z,238.35
2023-01-10T14:07:51.725Z,249.55
2023-01-10T14:10:48.512Z,243.85
2023-01-10T14:13:38.202Z,249.57
2023-01-10T14:16:50.141Z,256.77
2023-01-10T14:19:45.295Z,222.57
2023-01-10T14:22:50.282Z,237.07
2023-01-10T14:25:36.065Z,244.63
2023-01-10T14:28:49.357Z,234.25
2023-01-10T14:31:39.686Z,231.80
2023-01-10T14:34:30.362Z,241.43
2023-01-10T14:37:38.713Z,232.50
2023-01-10T14:40:30.364Z,246.18
2023-01-10T14:43:19.303Z,241.50
2023-01-10T14:46:20.491Z,250.90
2023-01-10T14:49:08.562Z,240.13
2023-01-10T14:51:50.217Z,245.25
2023-01-10T14:55:18.221Z,242.43
2023-01-10T14:58:12.206Z,247.88
2023-01-10T15:03:59.027Z,257.50
2023-01-10T15:07:02.253Z,232.02
2023-01-10T15:09:44.713Z,263.60
2023-01-10T15:12:36.302Z,239.35
2023-01-10T15:15:25.550Z,248.20
2023-01-10T15:19:09.246Z,241.88
2023-01-10T15:22:00.140Z,243.45
2023-01-10T15:24:48.615Z,233.57
2023-01-10T15:27:45.274Z,230.10
2023-01-10T15:30:37.577Z,228.48
2023-01-10T15:33:23.281Z,225.98
2023-01-10T15:36:30.347Z,230.43
2023-01-10T15:39:35.500Z,226.32
2023-01-10T15:42:26.431Z,225.10
2023-01-10T15:45:46.218Z,233.52
2023-01-10T15:48:42.262Z,241.30
2023-01-10T15:51:34.550Z,237.18
2023-01-10T15:54:29.247Z,221.90
2023-01-10T15:57:33.994Z,233.10
2023-01-10T16:00:26.232Z,215.75
2023-01-10T16:03:08.629Z,225.90
2023-01-10T16:06:07.229Z,216.50
2023-01-10T16:12:20.264Z,240.27
2023-01-10T16:15:04.801Z,225.77
2023-01-10T16:17:54.171Z,239.75
2023-01-10T16:20:51.237Z,242.10
2023-01-10T16:24:10.786Z,245.55
2023-01-10T16:27:01.111Z,240.02
2023-01-10T16:29:56.303Z,240.82
2023-01-10T16:32:44.607Z,247.98
2023-01-10T16:35:28.149Z,248.43
2023-01-10T16:38:19.147Z,250.90
2023-01-10T16:41:33.320Z,246.73
2023-01-10T16:44:22.548Z,270.80
2023-01-10T16:47:07.137Z,254.05
2023-01-10T16:49:55.560Z,251.38
2023-01-10T16:52:38.372Z,244.90
2023-01-10T16:58:13.331Z,268.92
2023-01-10T17:00:55.643Z,274.67
2023-01-10T17:03:51.329Z,275.70
2023-01-10T17:06:41.593Z,262.15
2023-01-10T17:09:41.344Z,265.17
2023-01-10T17:12:38.608Z,260.70
2023-01-10T17:15:22.261Z,276.58
2023-01-10T17:18:05.175Z,274.00
2023-01-10T17:20:54.403Z,275.05
2023-01-10T17:23:43.759Z,267.00
2023-01-10T17:26:27.121Z,275.17
2023-01-10T17:29:23.397Z,277.42
2023-01-10T17:32:05.638Z,278.13
2023-01-10T17:34:54.188Z,281.35
2023-01-10T17:37:43.771Z,301.95
2023-01-10T17:40:26.298Z,298.55
2023-01-10T17:43:14.722Z,325.88
2023-01-10T17:45:59.243Z,324.55
2023-01-10T17:48:48.167Z,319.80
2023-01-10T17:51:30.634Z,325.77
2023-01-10T17:54:19.368Z,343.55
2023-01-10T17:57:01.532Z,317.52
2023-01-10T17:59:50.307Z,332.85
2023-01-10T18:02:32.660Z,327.17
2023-01-10T18:05:21.316Z,305.80
2023-01-10T18:08:03.957Z,313.50
2023-01-10T18:10:53.305Z,303.60
2023-01-10T18:13:36.665Z,302.33
2023-01-10T18:16:27.209Z,309.92
2023-01-10T18:19:16.269Z,312.00
2023-01-10T18:22:05.215Z,316.33
2023-01-10T18:24:54.110Z,310.63
2023-01-10T18:27:50.218Z,318.42
2023-01-10T18:30:39.150Z,334.80
2023-01-10T18:33:28.302Z,338.15
2023-01-10T18:36:22.561Z,337.90
2023-01-10T18:41:54.766Z,330.33
2023-01-10T18:44:37.288Z,336.63
2023-01-10T18:47:25.671Z,335.15
2023-01-10T18:50:08.266Z,341.58
2023-01-10T18:52:57.371Z,358.92
2023-01-10T18:55:39.559Z,335.08
2023-01-10T18:58:30.311Z,364.55
2023-01-10T19:01:17.877Z,344.80
2023-01-10T19:04:07.191Z,390.60
2023-01-10T19:06:56.913Z,358.35
2023-01-10T19:09:45.511Z,372.52
2023-01-10T19:12:27.220Z,414.50
2023-01-10T19:15:10.877Z,362.27
2023-01-10T19:18:00.264Z,448.98
2023-01-10T19:20:49.230Z,394.80
2023-01-10T19:23:38.265Z,429.13
2023-01-10T19:26:27.595Z,520.17
2023-01-10T19:29:16.183Z,437.85
2023-01-10T19:32:05.167Z,480.80
2023-01-10T19:34:54.288Z,481.55
2023-01-10T19:37:43.130Z,448.55
2023-01-10T19:40:39.250Z,409.85
2023-01-10T19:43:30.245Z,407.63
2023-01-10T19:46:17.666Z,433.35
2023-01-10T19:49:09.267Z,432.77
2023-01-10T19:51:57.064Z,383.17
2023-01-10T19:54:47.267Z,331.10
2023-01-10T19:57:29.604Z,450.30
2023-01-10T20:00:19.204Z,364.15
2023-01-10T20:03:02.074Z,480.95
2023-01-10T20:05:52.183Z,376.27
2023-01-10T20:08:41.208Z,360.40
2023-01-10T20:11:32.137Z,460.70
2023-01-10T20:14:18.584Z,448.98
2023-01-10T20:17:07.215Z,374.55
2023-01-10T20:19:56.226Z,367.70
2023-01-10T20:22:38.373Z,420.08
2023-01-10T20:25:27.160Z,500.33
2023-01-10T20:28:16.258Z,453.60
2023-01-10T20:30:58.573Z,357.70
2023-01-10T20:33:47.169Z,359.25
2023-01-10T20:36:38.136Z,375.08
2023-01-10T20:39:29.211Z,437.77
2023-01-10T20:42:11.560Z,489.63
2023-01-10T20:45:00.275Z,400.73
2023-01-10T20:47:42.531Z,434.95
2023-01-10T20:50:31.101Z,420.63
2023-01-10T20:53:13.647Z,450.75
2023-01-10T20:56:02.282Z,421.52
2023-01-10T20:58:44.553Z,472.83
2023-01-10T21:01:35.881Z,418.63
2023-01-10T21:04:18.492Z,412.90
2023-01-10T21:07:07.373Z,431.35
2023-01-10T21:09:49.688Z,392.10
2023-01-10T21:12:39.508Z,455.88
2023-01-10T21:15:21.536Z,419.45
2023-01-10T21:18:10.261Z,390.48
2023-01-10T21:21:02.224Z,410.15
2023-01-10T21:23:51.163Z,408.40
2023-01-10T21:26:40.171Z,407.75
2023-01-10T21:29:28.532Z,375.55
2023-01-10T21:32:10.149Z,390.73
2023-01-10T21:34:58.505Z,355.80
2023-01-10T21:37:40.132Z,342.13
2023-01-10T21:40:22.360Z,405.45
2023-01-10T21:43:11.216Z,433.05
2023-01-10T21:46:00.294Z,344.20
2023-01-10T21:48:49.120Z,462.73
2023-01-10T21:51:38.114Z,407.48
2023-01-10T21:54:20.550Z,336.88
2023-01-10T21:57:09.113Z,338.70
2023-01-10T21:59:51.543Z,351.50
2023-01-10T22:02:43.063Z,437.23
2023-01-10T22:05:32.248Z,405.08
2023-01-10T22:08:21.108Z,361.42
2023-01-10T22:11:11.070Z,475.45
2023-01-10T22:14:00.541Z,371.63
2023-01-10T22:16:43.103Z,468.88
2023-01-10T22:19:32.272Z,434.45
2023-01-10T22:22:15.684Z,454.77
2023-01-10T22:25:04.233Z,403.15
2023-01-10T22:28:01.078Z,367.73
2023-01-10T22:30:50.250Z,397.75
2023-01-10T22:33:35.419Z,338.95
2023-01-10T22:36:26.301Z,342.90
2023-01-10T22:39:08.489Z,311.30
2023-01-10T22:41:57.202Z,359.73
2023-01-10T22:44:39.573Z,348.90
2023-01-10T22:47:28.240Z,378.63
2023-01-10T22:50:10.503Z,326.08
2023-01-10T22:52:59.081Z,343.65
2023-01-10T22:55:42.486Z,331.75
2023-01-10T22:58:31.233Z,342.27
2023-01-10T23:01:16.446Z,354.77
2023-01-10T23:04:05.243Z,343.73
2023-01-10T23:06:54.251Z,335.45
2023-01-10T23:09:36.408Z,370.67
2023-01-10T23:12:25.186Z,326.05
2023-01-10T23:15:07.889Z,337.30
2023-01-10T23:17:57.184Z,326.98
2023-01-10T23:20:45.472Z,331.27
2023-01-10T23:23:28.201Z,341.70
2023-01-10T23:26:12.830Z,366.25
2023-01-10T23:29:04.204Z,336.60
2023-01-10T23:31:50.768Z,365.48
2023-01-10T23:34:39.067Z,377.15
2023-01-10T23:37:34.201Z,384.50
2023-01-10T23:40:16.425Z,361.15
2023-01-10T23:43:05.223Z,384.52
2023-01-10T23:45:54.509Z,433.45
2023-01-10T23:48:37.243Z,365.23
2023-01-10T23:51:19.424Z,371.15
2023-01-10T23:54:08.094Z,364.92
2023-01-10T23:57:00.135Z,373.67
2023-01-10T23:59:42.491Z,390.17
